Time;durP1;ratioP1;P1;durP2;ratioP2;P2;SDS_P1;SDS_P2;PMS_P1;PMS_P2;Temp;Humidity;BMP_temperature;BMP_pressure;BME280_temperature;BME280_humidity;BME280_pressure;Samples;Min_cycle;Max_cycle;Signal;HPM_P1;HPM_P2
2022/01/31 00:00:30;;;;;;;8.00;6.30;;;;;;;0.00;85.65;100103.31;4964687;28;20221;-79
2022/01/31 00:02:55;;;;;;;9.30;6.73;;;;;;;0.03;85.54;100095.53;4961251;28;20223;-79
2022/01/31 00:05:21;;;;;;;7.27;4.73;;;;;;;0.06;85.32;100084.31;4958500;28;20290;-79
2022/01/31 00:07:46;;;;;;;7.17;5.40;;;;;;;0.04;85.35;100086.88;4959868;28;20232;-79
2022/01/31 00:10:13;;;;;;;13.57;4.10;;;;;;;0.05;85.33;100080.84;4962700;28;20224;-80
2022/01/31 00:15:11;;;;;;;6.30;4.53;;;;;;;0.04;85.35;100071.41;4959059;28;20204;-79
2022/01/31 00:17:36;;;;;;;5.37;4.90;;;;;;;0.04;85.29;100071.41;4960165;28;20675;-79
2022/01/31 00:20:02;;;;;;;5.90;4.53;;;;;;;0.01;85.20;100076.59;4958478;28;20717;-79
2022/01/31 00:22:28;;;;;;;5.77;4.87;;;;;;;-0.02;85.60;100074.91;4957350;28;20747;-79
2022/01/31 00:24:53;;;;;;;5.77;5.17;;;;;;;-0.03;85.26;100077.50;4957549;28;20502;-79
2022/01/31 00:27:18;;;;;;;7.43;4.80;;;;;;;-0.02;85.42;100086.97;4960830;28;20347;-80
2022/01/31 00:29:44;;;;;;;8.77;6.13;;;;;;;0.01;85.46;100092.09;4959668;28;20499;-80
2022/01/31 00:32:09;;;;;;;11.37;6.67;;;;;;;0.07;85.71;100071.34;4960638;28;21017;-79
2022/01/31 00:34:35;;;;;;;7.33;6.27;;;;;;;0.01;86.24;100080.91;4960408;28;20208;-79
2022/01/31 00:37:00;;;;;;;9.07;5.30;;;;;;;-0.11;86.33;100087.97;4959653;28;20259;-79
2022/01/31 00:39:27;;;;;;;6.95;5.53;;;;;;;-0.24;86.53;100099.31;4958009;28;20224;-79
2022/01/31 00:41:53;;;;;;;12.97;5.53;;;;;;;-0.35;86.84;100091.69;4957171;28;20671;-79
2022/01/31 00:44:27;;;;;;;12.20;6.40;;;;;;;-0.35;86.86;100094.25;4959126;28;20243;-78
2022/01/31 00:46:59;;;;;;;8.77;5.20;;;;;;;-0.35;86.81;100104.59;4958162;28;20208;-78
2022/01/31 00:51:58;;;;;;;10.25;6.75;;;;;;;-0.27;86.58;100115.69;4959946;28;20251;-78
2022/01/31 00:54:24;;;;;;;10.02;6.05;;;;;;;-0.23;86.37;100108.75;4954221;28;20209;-79
2022/01/31 00:56:50;;;;;;;9.37;5.97;;;;;;;-0.19;86.31;100104.38;4958001;28;20215;-78
2022/01/31 00:59:16;;;;;;;8.27;6.10;;;;;;;-0.14;86.15;100103.47;4973445;28;20232;-78
2022/01/31 01:01:41;;;;;;;12.55;6.30;;;;;;;-0.04;85.91;100111.97;4955154;28;20861;-78
2022/01/31 01:04:06;;;;;;;11.17;6.90;;;;;;;0.01;86.11;100104.16;4964350;28;20209;-78
2022/01/31 01:06:32;;;;;;;6.60;5.67;;;;;;;0.00;86.47;100085.25;4980240;28;20238;-78
2022/01/31 01:08:58;;;;;;;6.55;5.30;;;;;;;0.04;85.90;100091.22;4958987;28;20793;-78
2022/01/31 01:11:23;;;;;;;6.93;5.10;;;;;;;0.10;86.22;100073.88;4954967;28;20499;-79
2022/01/31 01:13:49;;;;;;;12.00;5.70;;;;;;;0.14;86.15;100073.00;4952663;28;20236;-79
2022/01/31 01:16:14;;;;;;;8.20;5.57;;;;;;;0.17;86.01;100067.78;4955232;28;20581;-78
2022/01/31 01:18:40;;;;;;;7.53;5.23;;;;;;;0.19;86.09;100065.19;4959236;28;20228;-78
2022/01/31 01:21:06;;;;;;;7.67;5.50;;;;;;;0.18;85.95;100053.13;4956478;28;20579;-78
2022/01/31 01:23:31;;;;;;;9.10;6.10;;;;;;;0.17;86.19;100052.28;4957046;28;20205;-78
2022/01/31 01:25:56;;;;;;;7.57;5.27;;;;;;;0.17;86.20;100044.53;4956565;28;20209;-78
2022/01/31 01:28:24;;;;;;;8.53;5.53;;;;;;;0.18;86.38;100040.22;4957270;28;20195;-78
2022/01/31 01:30:50;;;;;;;10.95;8.02;;;;;;;0.27;86.48;100026.28;4955050;28;20534;-78
2022/01/31 01:33:21;;;;;;;9.10;6.45;;;;;;;0.20;86.45;100035.88;4955046;28;20762;-79
2022/01/31 01:35:51;;;;;;;10.18;6.20;;;;;;;0.22;86.74;100023.81;4964537;28;20208;-78
2022/01/31 01:38:19;;;;;;;10.48;6.30;;;;;;;0.22;86.47;100019.47;4954597;28;20708;-78
2022/01/31 01:40:46;;;;;;;5.80;5.20;;;;;;;0.27;86.66;100024.59;4977870;28;20473;-78
2022/01/31 01:43:15;;;;;;;10.23;6.03;;;;;;;0.26;86.53;100007.34;4953847;28;20216;-78
2022/01/31 01:45:42;;;;;;;9.00;5.78;;;;;;;0.28;86.28;100002.19;4962826;28;20690;-78
2022/01/31 01:48:10;;;;;;;7.85;5.18;;;;;;;0.29;86.30;100003.88;4957137;28;20247;-78
2022/01/31 01:50:38;;;;;;;9.52;5.70;;;;;;;0.25;86.38;100009.97;4953356;28;20733;-78
2022/01/31 01:53:06;;;;;;;6.80;5.22;;;;;;;0.24;86.55;100003.09;4952581;28;20594;-78
2022/01/31 01:55:31;;;;;;;10.73;5.95;;;;;;;0.27;86.35;100003.03;4948171;28;20396;-79
2022/01/31 01:57:58;;;;;;;10.25;6.20;;;;;;;0.29;86.50;99990.97;4951971;28;20323;-78
2022/01/31 02:00:27;;;;;;;10.13;5.80;;;;;;;0.29;86.46;99972.88;4955456;28;20208;-78
2022/01/31 02:02:54;;;;;;;11.60;8.20;;;;;;;0.41;86.20;99962.34;4954141;28;20653;-78
2022/01/31 02:05:21;;;;;;;13.73;7.28;;;;;;;0.39;86.59;99948.59;4953684;28;20470;-78
2022/01/31 02:07:48;;;;;;;10.75;7.82;;;;;;;0.41;86.55;99924.44;4954568;28;20230;-79
2022/01/31 02:10:16;;;;;;;12.93;8.05;;;;;;;0.46;86.43;99923.50;4954289;28;20236;-79
2022/01/31 02:13:04;;;;;;;7.20;5.30;;;;;;;0.53;86.39;99918.19;4954409;28;20233;-78
2022/01/31 02:15:50;;;;;;;6.28;5.43;;;;;;;0.59;85.99;99912.06;4958628;28;20220;-78
2022/01/31 02:18:53;;;;;;;11.40;7.63;;;;;;;0.62;85.84;99884.44;4974601;28;20242;-78
2022/01/31 02:21:37;;;;;;;9.07;5.55;;;;;;;0.66;85.92;99867.97;4959181;28;20259;-79
2022/01/31 02:24:22;;;;;;;10.93;7.10;;;;;;;0.71;85.66;99849.81;4955163;28;20781;-78
2022/01/31 02:27:03;;;;;;;10.05;8.38;;;;;;;0.71;85.56;99833.44;4954932;28;20728;-78
2022/01/31 02:29:30;;;;;;;9.85;6.07;;;;;;;0.70;85.75;99844.66;4958315;28;20234;-78
2022/01/31 02:31:56;;;;;;;10.25;7.90;;;;;;;0.71;85.62;99830.84;4964214;28;20507;-78
2022/01/31 02:34:21;;;;;;;10.73;6.83;;;;;;;0.63;85.90;99847.34;4958254;28;20248;-78
2022/01/31 02:36:47;;;;;;;8.10;6.37;;;;;;;0.60;86.17;99847.44;4957858;28;20213;-78
2022/01/31 02:39:12;;;;;;;9.43;6.30;;;;;;;0.63;86.28;99851.69;4956941;28;20237;-78
2022/01/31 02:41:40;;;;;;;7.40;4.87;;;;;;;0.68;86.18;99852.44;4956993;28;20369;-78
2022/01/31 02:44:13;;;;;;;9.65;6.85;;;;;;;0.70;85.82;99850.66;4960797;28;20192;-78
2022/01/31 02:46:48;;;;;;;11.95;7.28;;;;;;;0.66;85.97;99854.22;4972538;28;20803;-78
2022/01/31 02:49:17;;;;;;;9.52;6.53;;;;;;;0.63;86.06;99864.63;4960270;28;20936;-79
2022/01/31 02:51:47;;;;;;;10.88;7.45;;;;;;;0.58;86.12;99875.03;4960256;28;20654;-78
2022/01/31 02:54:13;;;;;;;11.80;6.97;;;;;;;0.58;86.54;99862.09;4953880;28;20735;-78
2022/01/31 02:56:40;;;;;;;8.95;6.85;;;;;;;0.63;86.15;99864.63;4957990;28;20339;-79
2022/01/31 02:59:06;;;;;;;11.48;7.55;;;;;;;0.68;86.16;99854.19;4959047;28;21191;-79
2022/01/31 03:01:35;;;;;;;14.30;7.78;;;;;;;0.73;86.13;99829.94;4956299;28;20454;-78
2022/01/31 03:04:00;;;;;;;13.25;7.47;;;;;;;0.76;86.39;99822.13;4957123;28;20216;-78
2022/01/31 03:06:26;;;;;;;11.13;7.33;;;;;;;0.79;86.21;99828.97;4962427;28;20209;-78
2022/01/31 03:08:51;;;;;;;7.97;6.03;;;;;;;0.82;86.07;99823.72;4957115;28;20312;-78
2022/01/31 03:11:20;;;;;;;10.85;7.45;;;;;;;0.86;85.95;99840.88;4955818;28;20200;-78
2022/01/31 03:14:07;;;;;;;13.27;7.55;;;;;;;0.90;85.83;99811.50;4959685;28;20212;-78
2022/01/31 03:16:40;;;;;;;9.45;6.18;;;;;;;0.95;85.82;99778.63;4966685;28;20260;-78
2022/01/31 03:19:21;;;;;;;9.23;5.30;;;;;;;1.04;85.71;99782.75;4966409;28;20637;-78
2022/01/31 03:22:02;;;;;;;8.35;6.15;;;;;;;1.12;85.53;99780.00;4960030;28;20224;-78
2022/01/31 03:24:31;;;;;;;18.10;5.43;;;;;;;1.21;84.96;99777.19;4968573;28;20719;-78
2022/01/31 03:27:06;;;;;;;7.35;4.88;;;;;;;1.30;84.79;99766.66;4968656;28;20693;-78
2022/01/31 03:29:32;;;;;;;11.60;5.97;;;;;;;1.41;84.95;99745.69;4968022;28;20469;-78
2022/01/31 03:31:58;;;;;;;8.93;5.30;;;;;;;1.57;84.69;99733.19;4967726;28;20879;-78
2022/01/31 03:34:25;;;;;;;8.23;4.77;;;;;;;1.63;84.35;99723.56;4982959;28;20486;-78
2022/01/31 03:36:51;;;;;;;6.43;4.22;;;;;;;1.69;84.48;99715.63;4966915;28;20204;-78
2022/01/31 03:39:20;;;;;;;7.13;3.25;;;;;;;1.77;84.37;99716.28;4967160;28;20229;-79
2022/01/31 03:41:46;;;;;;;6.30;3.73;;;;;;;1.90;83.50;99697.84;4970165;28;20432;-79
2022/01/31 03:44:12;;;;;;;8.38;3.90;;;;;;;2.00;83.20;99686.34;4985369;28;20254;-79
2022/01/31 03:46:38;;;;;;;7.17;3.87;;;;;;;2.07;82.72;99676.63;4970406;28;20291;-78
2022/01/31 03:49:04;;;;;;;7.43;3.55;;;;;;;2.14;82.71;99671.25;4970033;28;20315;-79
2022/01/31 03:51:40;;;;;;;9.43;3.83;;;;;;;2.25;81.99;99672.69;4956996;28;20247;-78
2022/01/31 03:54:06;;;;;;;8.67;4.87;;;;;;;2.32;82.33;99658.66;4968923;28;20208;-79
2022/01/31 03:56:32;;;;;;;5.60;3.63;;;;;;;2.38;81.99;99641.19;4959635;28;20541;-79
2022/01/31 03:59:15;;;;;;;6.82;3.53;;;;;;;2.47;81.58;99647.00;4970662;28;20482;-78
2022/01/31 04:01:41;;;;;;;8.70;3.78;;;;;;;2.57;81.32;99643.22;4985447;28;20478;-78
2022/01/31 04:04:10;;;;;;;6.40;3.13;;;;;;;2.63;81.10;99656.00;4970686;28;20212;-78
2022/01/31 04:06:37;;;;;;;12.50;3.53;;;;;;;2.70;80.81;99670.50;4971286;28;20224;-78
2022/01/31 04:09:03;;;;;;;4.10;2.30;;;;;;;2.79;80.74;99662.41;4968488;28;20612;-78
2022/01/31 04:11:28;;;;;;;8.87;2.80;;;;;;;2.87;80.74;99654.41;4967987;28;20315;-79
2022/01/31 04:13:53;;;;;;;4.87;3.30;;;;;;;2.95;80.30;99654.16;4974771;28;20451;-79
2022/01/31 04:16:19;;;;;;;6.03;3.40;;;;;;;3.00;80.16;99653.13;4974631;28;20247;-79
2022/01/31 04:18:44;;;;;;;4.37;3.17;;;;;;;3.07;79.84;99649.41;4975535;28;20231;-79
2022/01/31 04:21:09;;;;;;;6.33;3.20;;;;;;;3.15;80.21;99650.91;4971165;28;20598;-79
2022/01/31 04:23:35;;;;;;;3.77;2.93;;;;;;;3.18;79.69;99646.47;4971262;28;20230;-79
2022/01/31 04:26:10;;;;;;;6.07;3.50;;;;;;;3.24;79.19;99643.69;4971507;28;20216;-78
2022/01/31 04:29:02;;;;;;;5.97;2.92;;;;;;;3.32;78.84;99630.44;4970892;28;21017;-78
2022/01/31 04:31:37;;;;;;;8.25;3.22;;;;;;;3.37;78.93;99622.50;4969509;28;20906;-79
2022/01/31 04:34:03;;;;;;;7.95;3.53;;;;;;;3.44;78.51;99611.00;4970007;28;20216;-78
2022/01/31 04:36:28;;;;;;;4.23;2.83;;;;;;;3.49;78.34;99620.34;4970050;28;20867;-78
2022/01/31 04:38:53;;;;;;;9.33;3.90;;;;;;;3.50;78.20;99611.63;4970663;28;20712;-79
2022/01/31 04:41:20;;;;;;;6.40;2.67;;;;;;;3.57;77.54;99601.91;4970706;28;20212;-78
2022/01/31 04:43:48;;;;;;;4.70;3.28;;;;;;;3.61;77.39;99603.47;4970266;28;20215;-78
2022/01/31 04:46:13;;;;;;;9.30;3.80;;;;;;;3.63;77.35;99599.06;4970076;28;20555;-78
2022/01/31 04:48:39;;;;;;;4.20;2.90;;;;;;;3.66;77.30;99590.31;4969935;28;20318;-79
2022/01/31 04:51:04;;;;;;;9.20;3.43;;;;;;;3.70;76.95;99582.38;4969666;28;20311;-80
2022/01/31 04:53:30;;;;;;;3.50;2.80;;;;;;;3.76;76.43;99586.50;4997427;28;20249;-78
2022/01/31 04:55:55;;;;;;;8.90;4.27;;;;;;;3.80;76.42;99579.44;4993557;28;20563;-79
2022/01/31 04:58:22;;;;;;;4.77;2.60;;;;;;;3.82;76.27;99588.88;4999118;28;20269;-78
2022/01/31 05:00:50;;;;;;;8.70;3.75;;;;;;;3.91;76.09;99575.53;4998685;28;20481;-78
2022/01/31 05:03:18;;;;;;;3.67;2.63;;;;;;;3.92;75.96;99573.81;4996039;28;20226;-78
2022/01/31 05:05:45;;;;;;;7.72;3.30;;;;;;;3.93;76.08;99565.09;4993450;28;20453;-79
2022/01/31 05:08:11;;;;;;;4.97;2.75;;;;;;;3.93;75.66;99560.72;5003033;28;20211;-78
2022/01/31 05:10:42;;;;;;;4.80;3.13;;;;;;;3.96;75.92;99557.19;5001050;28;20566;-80
2022/01/31 05:13:08;;;;;;;6.50;2.58;;;;;;;3.96;75.58;99555.41;4994438;28;20314;-78
2022/01/31 05:15:33;;;;;;;5.27;2.50;;;;;;;4.00;75.80;99548.38;5000067;28;20299;-79
2022/01/31 05:17:59;;;;;;;4.20;2.37;;;;;;;4.02;75.49;99533.53;4995532;28;20216;-78
2022/01/31 05:20:24;;;;;;;6.00;3.10;;;;;;;4.06;75.58;99537.75;5001375;28;20225;-79
2022/01/31 05:22:49;;;;;;;4.90;2.70;;;;;;;4.09;75.21;99544.56;4999716;28;20196;-79
2022/01/31 05:25:15;;;;;;;5.73;3.30;;;;;;;4.14;75.21;99540.88;4999944;28;20203;-78
2022/01/31 05:27:40;;;;;;;2.97;2.37;;;;;;;4.17;75.38;99529.53;4997828;28;20670;-79
2022/01/31 05:30:06;;;;;;;3.30;2.63;;;;;;;4.21;75.23;99536.28;4996825;28;20310;-79
2022/01/31 05:32:31;;;;;;;6.03;3.20;;;;;;;4.30;75.78;99545.50;4997806;28;20500;-79
2022/01/31 05:34:57;;;;;;;8.90;4.50;;;;;;;4.28;75.61;99542.13;5014841;28;20203;-79
2022/01/31 05:37:22;;;;;;;6.77;3.10;;;;;;;4.27;75.53;99535.22;5003927;28;20703;-78
2022/01/31 05:39:47;;;;;;;5.87;3.60;;;;;;;4.27;75.65;99524.84;4996620;28;20266;-78
2022/01/31 05:42:13;;;;;;;3.40;3.10;;;;;;;4.28;75.52;99516.13;4996042;28;20279;-79
2022/01/31 05:44:39;;;;;;;6.67;3.90;;;;;;;4.28;75.66;99500.50;4995940;28;20675;-79
2022/01/31 05:47:05;;;;;;;7.57;3.50;;;;;;;4.30;75.63;99516.91;4995868;28;20791;-78
2022/01/31 05:49:30;;;;;;;6.47;3.50;;;;;;;4.30;75.74;99517.75;5000099;28;20613;-79
2022/01/31 05:52:02;;;;;;;5.97;2.63;;;;;;;4.31;75.76;99522.03;4997034;28;21209;-79
2022/01/31 05:54:28;;;;;;;3.53;2.92;;;;;;;4.31;75.72;99505.59;5001078;28;20206;-79
2022/01/31 05:56:57;;;;;;;6.57;3.10;;;;;;;4.31;75.88;99495.19;4990915;28;20266;-79
2022/01/31 05:59:23;;;;;;;3.90;3.30;;;;;;;4.33;76.10;99482.97;5001775;28;20489;-79
2022/01/31 06:01:49;;;;;;;5.97;3.50;;;;;;;4.37;76.00;99481.94;5001610;28;20507;-79
2022/01/31 06:04:14;;;;;;;8.13;2.77;;;;;;;4.39;75.80;99475.75;5001230;28;20364;-79
2022/01/31 06:06:39;;;;;;;3.37;2.70;;;;;;;4.39;75.65;99467.13;5001384;28;20566;-79
2022/01/31 06:09:06;;;;;;;3.80;2.60;;;;;;;4.40;75.59;99458.41;5003356;28;20226;-79
2022/01/31 06:11:34;;;;;;;4.25;2.50;;;;;;;4.42;75.52;99441.81;4989232;28;20247;-79
2022/01/31 06:14:01;;;;;;;6.68;3.60;;;;;;;4.44;75.44;99419.22;4978026;28;20211;-79
2022/01/31 06:16:27;;;;;;;3.63;2.65;;;;;;;4.48;75.17;99413.88;4982627;28;20204;-80
2022/01/31 06:18:52;;;;;;;6.10;3.15;;;;;;;4.50;75.26;99401.66;4976979;28;20235;-79
2022/01/31 06:21:18;;;;;;;6.67;2.60;;;;;;;4.50;75.09;99406.88;4974603;28;20212;-79
2022/01/31 06:23:43;;;;;;;4.17;2.67;;;;;;;4.51;75.07;99408.53;4979778;28;20211;-79
2022/01/31 06:26:09;;;;;;;4.87;2.20;;;;;;;4.53;74.86;99385.91;4984019;28;20258;-78
2022/01/31 06:28:35;;;;;;;5.17;2.97;;;;;;;4.53;75.12;99381.56;4978205;28;20690;-79
2022/01/31 06:31:09;;;;;;;5.57;3.03;;;;;;;4.56;75.13;99385.78;4978238;28;20576;-79
2022/01/31 06:33:34;;;;;;;4.30;2.50;;;;;;;4.56;75.34;99378.81;4981670;28;20530;-79
2022/01/31 06:36:00;;;;;;;6.03;3.30;;;;;;;4.56;74.94;99375.38;4980755;28;20222;-79
2022/01/31 06:38:28;;;;;;;4.20;2.00;;;;;;;4.56;75.20;99384.03;4974915;28;20680;-78
2022/01/31 06:40:54;;;;;;;5.93;3.00;;;;;;;4.58;75.20;99384.81;4978330;28;20663;-79
2022/01/31 06:43:19;;;;;;;6.43;3.10;;;;;;;4.60;75.36;99379.56;4977867;28;20603;-79
2022/01/31 06:45:45;;;;;;;3.80;2.33;;;;;;;4.62;75.62;99375.16;4974423;28;20218;-79
2022/01/31 06:48:10;;;;;;;5.33;2.80;;;;;;;4.62;76.19;99370.78;4971611;28;20286;-79
2022/01/31 06:50:36;;;;;;;6.57;3.33;;;;;;;4.61;76.75;99363.88;4974087;28;20576;-80
2022/01/31 06:53:02;;;;;;;4.90;2.40;;;;;;;4.56;77.54;99368.41;4970534;28;20344;-79
2022/01/31 06:55:29;;;;;;;3.65;2.67;;;;;;;4.53;78.00;99380.72;4970896;28;20207;-79
2022/01/31 06:57:55;;;;;;;4.20;2.67;;;;;;;4.51;78.47;99378.19;4976488;28;20702;-80
2022/01/31 07:00:22;;;;;;;9.57;6.20;;;;;;;4.50;78.84;99380.84;4977889;28;20231;-79
2022/01/31 07:02:49;;;;;;;20.25;12.40;;;;;;;4.55;79.38;99389.31;4978135;28;20488;-79
2022/01/31 07:05:16;;;;;;;14.02;9.32;;;;;;;4.52;79.41;99408.50;4976179;28;20206;-80
2022/01/31 07:07:42;;;;;;;4.30;3.78;;;;;;;4.51;79.42;99409.41;4979088;28;20883;-80
2022/01/31 07:10:08;;;;;;;7.17;5.23;;;;;;;4.49;79.91;99405.19;4973737;28;20242;-80
2022/01/31 07:12:38;;;;;;;7.83;4.67;;;;;;;4.44;80.38;99395.81;4975325;28;20574;-80
2022/01/31 07:15:09;;;;;;;13.68;7.18;;;;;;;4.41;80.83;99397.69;4977304;28;20735;-80
2022/01/31 07:17:38;;;;;;;8.60;4.80;;;;;;;4.36;81.53;99391.84;4975270;28;20215;-79
2022/01/31 07:20:05;;;;;;;5.35;3.80;;;;;;;4.35;81.49;99397.97;4974251;28;20228;-79
2022/01/31 07:22:36;;;;;;;4.68;2.65;;;;;;;4.35;81.52;99401.41;4969743;28;20203;-80
2022/01/31 07:25:06;;;;;;;2.90;1.92;;;;;;;4.33;82.02;99415.38;4972285;28;20208;-79
2022/01/31 07:27:32;;;;;;;2.30;2.05;;;;;;;4.32;82.04;99400.66;4974851;28;20662;-81
2022/01/31 07:29:57;;;;;;;4.97;2.30;;;;;;;4.34;82.66;99407.50;4976597;28;20623;-80
2022/01/31 07:32:23;;;;;;;4.90;2.80;;;;;;;4.38;82.90;99406.47;4971278;28;20505;-80
2022/01/31 07:34:53;;;;;;;2.28;2.08;;;;;;;4.32;83.62;99405.84;4974242;28;20502;-80
2022/01/31 07:37:19;;;;;;;4.30;1.90;;;;;;;4.30;83.54;99399.91;4978526;28;20350;-80
2022/01/31 07:39:45;;;;;;;7.40;2.55;;;;;;;4.25;83.84;99392.28;4978267;28;20746;-78
2022/01/31 07:42:10;;;;;;;2.80;1.60;;;;;;;4.21;84.06;99390.69;4991462;28;20209;-78
2022/01/31 07:44:45;;;;;;;2.00;1.80;;;;;;;4.18;84.41;99404.66;4971822;28;20465;-78
2022/01/31 07:47:11;;;;;;;5.93;2.70;;;;;;;4.15;84.61;99394.41;4970820;28;20239;-78
2022/01/31 07:49:36;;;;;;;4.30;2.33;;;;;;;4.14;84.85;99397.91;4970177;28;20262;-79
2022/01/31 07:52:03;;;;;;;2.13;1.90;;;;;;;4.13;84.64;99385.84;4975793;28;20274;-78
2022/01/31 07:54:29;;;;;;;2.72;2.53;;;;;;;4.15;84.61;99388.38;4970256;28;20251;-79
2022/01/31 07:56:56;;;;;;;3.80;2.33;;;;;;;4.13;85.02;99384.97;4974678;28;20208;-79
2022/01/31 07:59:22;;;;;;;3.03;2.30;;;;;;;4.10;85.22;99396.34;4971386;28;20200;-79
2022/01/31 08:01:47;;;;;;;2.72;2.10;;;;;;;4.12;85.59;99402.31;4973630;28;20851;-78
2022/01/31 08:04:13;;;;;;;2.00;1.73;;;;;;;4.11;85.51;99392.84;4975101;28;20199;-78
2022/01/31 08:06:38;;;;;;;3.37;2.23;;;;;;;4.09;85.57;99409.41;4969453;28;20318;-78
2022/01/31 08:09:04;;;;;;;5.23;2.00;;;;;;;4.09;85.67;99392.06;4971048;28;20464;-78
2022/01/31 08:11:34;;;;;;;3.37;2.10;;;;;;;4.08;85.52;99405.09;4969016;28;20247;-78
2022/01/31 08:14:05;;;;;;;1.60;1.50;;;;;;;4.06;85.76;99389.59;4971334;28;20453;-78
2022/01/31 08:16:31;;;;;;;2.53;2.08;;;;;;;4.07;85.62;99398.22;4975249;28;20203;-78
2022/01/31 08:18:57;;;;;;;2.53;1.73;;;;;;;4.06;85.51;99384.38;4966770;28;20267;-78
2022/01/31 08:21:25;;;;;;;3.83;1.53;;;;;;;4.07;85.58;99393.03;4974890;28;20666;-77
2022/01/31 08:23:52;;;;;;;2.10;1.80;;;;;;;4.06;85.46;99384.38;4970702;28;20222;-77
2022/01/31 08:26:18;;;;;;;3.25;1.63;;;;;;;4.04;85.61;99394.00;4971778;28;20629;-77
2022/01/31 08:28:51;;;;;;;2.10;1.90;;;;;;;4.05;85.86;99389.63;4971716;28;20235;-78
2022/01/31 08:31:22;;;;;;;3.05;1.65;;;;;;;4.06;85.82;99384.38;4973580;28;20514;-78
2022/01/31 08:34:05;;;;;;;2.03;1.83;;;;;;;4.05;85.83;99400.03;4966662;28;20212;-78
2022/01/31 08:36:34;;;;;;;1.80;1.67;;;;;;;4.04;85.86;99399.19;4968348;28;20668;-78
2022/01/31 08:39:08;;;;;;;2.00;1.50;;;;;;;4.05;85.71;99395.72;4974819;28;20231;-78
2022/01/31 08:41:35;;;;;;;4.13;2.10;;;;;;;4.05;85.53;99382.72;4971982;28;20607;-77
2022/01/31 08:44:01;;;;;;;3.17;2.33;;;;;;;4.04;85.81;99381.00;4968283;28;20238;-78
2022/01/31 08:46:27;;;;;;;5.82;2.95;;;;;;;4.04;85.77;99388.78;4973835;28;20204;-78
2022/01/31 08:48:55;;;;;;;1.70;1.60;;;;;;;4.03;86.01;99386.28;4967103;28;20725;-77
2022/01/31 08:51:21;;;;;;;4.70;2.17;;;;;;;4.04;86.02;99395.75;4970361;28;20592;-77
2022/01/31 08:53:48;;;;;;;1.80;1.70;;;;;;;4.05;85.90;99389.63;4971888;28;20219;-78
2022/01/31 08:56:13;;;;;;;2.85;2.20;;;;;;;4.05;85.94;99385.31;4972124;28;20454;-78
2022/01/31 08:58:48;;;;;;;2.10;1.60;;;;;;;4.06;85.80;99397.38;4972829;28;20247;-77
2022/01/31 09:01:21;;;;;;;2.95;2.30;;;;;;;4.07;85.85;99391.28;4969051;28;20559;-78
2022/01/31 09:06:18;;;;;;;6.05;3.88;;;;;;;4.06;85.90;99402.59;4973668;28;20223;-78
2022/01/31 09:08:44;;;;;;;3.10;1.70;;;;;;;4.05;85.94;99403.50;4970813;28;20227;-78
2022/01/31 09:11:10;;;;;;;2.80;2.40;;;;;;;4.04;86.01;99412.19;4970716;28;20218;-79
2022/01/31 09:13:36;;;;;;;4.90;2.37;;;;;;;4.02;85.82;99410.56;4970041;28;20224;-78
2022/01/31 09:16:02;;;;;;;3.25;2.67;;;;;;;4.00;86.08;99413.22;4968630;28;20686;-78
2022/01/31 09:18:28;;;;;;;2.70;1.98;;;;;;;3.98;86.64;99421.06;4971024;28;20234;-78
2022/01/31 09:20:54;;;;;;;2.20;1.97;;;;;;;3.96;86.39;99435.88;4969463;28;20215;-78
2022/01/31 09:23:19;;;;;;;1.63;1.52;;;;;;;3.93;86.74;99436.00;4971646;28;20506;-79
2022/01/31 09:25:47;;;;;;;2.70;2.50;;;;;;;3.93;86.68;99456.78;4968868;28;20247;-78
2022/01/31 09:28:14;;;;;;;2.13;1.92;;;;;;;3.89;86.96;99478.63;4967727;28;20204;-79
2022/01/31 09:30:41;;;;;;;1.88;1.67;;;;;;;3.94;87.53;99486.22;4967350;28;20971;-80
2022/01/31 09:33:07;;;;;;;0.90;0.70;;;;;;;3.87;87.71;99428.47;4970169;28;20236;-79
2022/01/31 09:35:36;;;;;;;2.75;1.00;;;;;;;3.85;86.94;99471.84;4967378;28;20357;-79
2022/01/31 09:38:03;;;;;;;1.23;1.13;;;;;;;3.76;85.99;99459.22;4969662;28;20935;-78
2022/01/31 09:40:28;;;;;;;1.17;0.73;;;;;;;3.62;85.77;99441.56;4968468;28;20246;-79
2022/01/31 09:45:52;;;;;;;1.42;1.10;;;;;;;3.39;86.23;99464.91;4973539;28;20929;-80
2022/01/31 09:48:33;;;;;;;2.80;1.50;;;;;;;3.38;86.35;99466.69;4973417;28;20204;-80
2022/01/31 09:51:08;;;;;;;2.47;1.60;;;;;;;3.45;86.53;99457.75;4972363;28;20302;-80
2022/01/31 09:53:36;;;;;;;2.67;1.30;;;;;;;3.59;86.21;99458.97;4970903;28;20641;-80
2022/01/31 09:56:02;;;;;;;3.10;2.03;;;;;;;3.80;85.95;99457.31;4972813;28;20210;-79
2022/01/31 09:58:29;;;;;;;2.15;1.80;;;;;;;3.98;85.47;99460.06;4968555;28;20207;-79
2022/01/31 10:01:09;;;;;;;2.47;2.20;;;;;;;4.26;85.02;99463.31;4968960;28;20472;-80
2022/01/31 10:03:53;;;;;;;3.53;1.90;;;;;;;4.55;84.37;99444.78;4971195;28;20212;-79
2022/01/31 10:06:20;;;;;;;2.75;2.47;;;;;;;4.93;83.39;99455.31;4971574;28;20223;-79
2022/01/31 10:08:47;;;;;;;3.72;2.25;;;;;;;5.23;82.46;99454.91;4970408;28;20714;-79
2022/01/31 10:11:37;;;;;;;2.63;2.28;;;;;;;5.44;81.80;99459.16;4970372;28;20215;-79
2022/01/31 10:17:02;;;;;;;2.55;1.98;;;;;;;5.36;81.66;99461.25;4970677;28;20214;-79
2022/01/31 10:19:28;;;;;;;1.48;1.38;;;;;;;5.24;81.74;99467.88;4971553;28;20253;-79
2022/01/31 10:22:01;;;;;;;1.83;1.58;;;;;;;5.15;82.11;99468.25;4973383;28;20975;-79
2022/01/31 10:24:28;;;;;;;5.80;1.83;;;;;;;5.06;82.23;99474.69;4972157;28;20207;-79
2022/01/31 10:26:54;;;;;;;3.83;1.67;;;;;;;5.00;82.92;99458.53;4972019;28;20223;-80
2022/01/31 10:29:22;;;;;;;3.03;1.77;;;;;;;4.93;82.69;99436.25;4975744;28;20259;-80
2022/01/31 10:32:04;;;;;;;2.17;1.80;;;;;;;4.96;83.02;99434.34;4971773;28;20492;-79
2022/01/31 10:34:44;;;;;;;3.15;2.58;;;;;;;4.91;83.48;99435.47;4973454;28;20462;-79
2022/01/31 10:37:13;;;;;;;4.10;2.45;;;;;;;4.90;83.83;99431.19;4971747;28;20203;-79
2022/01/31 10:54:12;;;;;;;4.88;1.88;;;;;;;4.72;84.56;99441.47;4970833;28;20208;-78
2022/01/31 10:56:45;;;;;;;2.80;2.60;;;;;;;4.70;84.64;99434.63;4970323;28;20208;-79
2022/01/31 10:59:16;;;;;;;6.93;3.00;;;;;;;4.73;84.75;99434.53;4970756;28;20495;-78
2022/01/31 11:01:45;;;;;;;3.20;2.20;;;;;;;4.80;84.60;99428.13;4971042;28;20474;-78
2022/01/31 11:04:14;;;;;;;6.88;2.20;;;;;;;4.78;84.93;99417.81;4972227;28;20277;-78
2022/01/31 11:06:42;;;;;;;3.45;1.90;;;;;;;4.78;84.81;99420.41;4973347;28;20227;-78
2022/01/31 11:09:12;;;;;;;4.15;1.50;;;;;;;4.76;83.94;99413.56;4972124;28;20262;-78
2022/01/31 11:11:40;;;;;;;2.60;1.75;;;;;;;4.77;83.71;99408.28;4974996;28;20228;-78
2022/01/31 11:14:07;;;;;;;1.73;1.33;;;;;;;4.81;82.92;99390.81;4973520;28;20302;-78
2022/01/31 11:16:33;;;;;;;5.38;2.20;;;;;;;4.85;82.79;99397.56;4972103;28;20702;-78
2022/01/31 11:19:03;;;;;;;1.73;1.45;;;;;;;4.90;82.59;99394.75;4972907;28;20277;-78
2022/01/31 11:21:33;;;;;;;2.85;1.88;;;;;;;4.94;82.40;99397.16;4971749;28;20647;-78
2022/01/31 11:24:02;;;;;;;2.75;1.40;;;;;;;4.95;82.01;99400.59;4972735;28;20781;-78
2022/01/31 11:26:38;;;;;;;6.57;1.30;;;;;;;4.91;81.99;99407.69;4972544;28;20208;-78
2022/01/31 11:29:08;;;;;;;2.25;1.45;;;;;;;4.86;82.39;99401.81;4973860;28;20251;-78
2022/01/31 11:31:36;;;;;;;2.17;1.90;;;;;;;4.91;82.64;99397.28;4971056;28;20963;-78
2022/01/31 11:34:04;;;;;;;2.45;1.70;;;;;;;4.97;82.47;99397.03;4969261;28;20290;-78
2022/01/31 11:36:32;;;;;;;1.70;1.40;;;;;;;5.05;82.50;99404.47;4969241;28;20255;-78
2022/01/31 11:38:58;;;;;;;2.50;1.48;;;;;;;5.06;81.98;99403.56;4973351;28;20310;-78
2022/01/31 11:41:24;;;;;;;2.13;1.30;;;;;;;5.06;81.91;99412.22;4972347;28;20249;-77
2022/01/31 11:44:10;;;;;;;2.28;1.42;;;;;;;5.05;81.79;99427.91;4972436;28;20919;-78
2022/01/31 11:46:38;;;;;;;1.35;1.10;;;;;;;4.98;81.60;99418.69;4973709;28;20285;-77
2022/01/31 11:49:13;;;;;;;1.95;1.00;;;;;;;4.96;81.46;99423.09;4973384;28;20224;-77
2022/01/31 11:52:06;;;;;;;0.80;0.80;;;;;;;4.98;81.69;99435.16;4974319;28;20242;-77
2022/01/31 11:54:35;;;;;;;1.30;1.15;;;;;;;5.00;81.54;99441.13;4971233;28;20212;-77
2022/01/31 11:57:01;;;;;;;1.85;0.90;;;;;;;4.98;80.97;99440.34;4979148;28;20202;-77
2022/01/31 11:59:27;;;;;;;0.80;0.70;;;;;;;4.92;80.55;99435.41;4976210;28;20236;-77
2022/01/31 12:01:57;;;;;;;1.80;0.98;;;;;;;4.90;80.35;99439.84;4977813;28;21512;-77
2022/01/31 12:04:23;;;;;;;1.67;0.73;;;;;;;4.81;80.10;99459.31;4977808;28;20203;-77
2022/01/31 12:06:49;;;;;;;0.80;0.65;;;;;;;4.75;80.24;99456.09;4974135;28;20808;-76
2022/01/31 12:09:17;;;;;;;1.05;0.77;;;;;;;4.65;80.28;99446.09;4977195;28;20228;-77
2022/01/31 12:12:01;;;;;;;1.58;0.90;;;;;;;4.64;80.40;99440.94;4981319;28;20211;-77